createdAt,value
2023-04-12T00:00:10.580Z,19297.66
2023-04-12T00:02:40.526Z,19299.69
2023-04-12T00:05:11.407Z,19315.94
2023-04-12T00:07:39.716Z,19285.47
2023-04-12T00:10:10.255Z,19281.41
2023-04-12T00:12:38.414Z,19287.50
2023-04-12T00:15:08.341Z,19281.41
2023-04-12T00:17:36.687Z,19273.28
2023-04-12T00:20:07.429Z,19305.78
2023-04-12T00:22:36.940Z,19297.66
2023-04-12T00:25:05.723Z,19283.44
2023-04-12T00:27:33.917Z,19242.78
2023-04-12T00:30:02.763Z,19277.34
2023-04-12T00:32:31.112Z,19285.47
2023-04-12T00:34:59.314Z,19273.28
2023-04-12T00:37:27.414Z,19269.22
2023-04-12T00:39:56.917Z,19265.13
2023-04-12T00:42:25.036Z,19261.06
2023-04-12T00:44:53.143Z,19218.41
2023-04-12T00:47:21.510Z,19238.72
2023-04-12T00:49:49.724Z,19246.84
2023-04-12T00:52:18.365Z,19263.09
2023-04-12T00:54:46.842Z,19240.75
2023-04-12T00:57:16.446Z,19244.81
2023-04-12T00:59:44.657Z,19236.69
2023-04-12T01:02:12.860Z,19277.34
2023-04-12T01:04:44.123Z,19279.38
2023-04-12T01:07:24.283Z,19244.81
2023-04-12T01:10:02.756Z,19265.13
2023-04-12T01:12:48.496Z,19232.63
2023-04-12T01:15:18.244Z,19273.28
2023-04-12T01:18:02.613Z,19254.97
2023-04-12T01:20:39.263Z,19285.47
2023-04-12T01:23:41.587Z,19277.34
2023-04-12T01:26:23.299Z,19257.00
2023-04-12T01:28:56.479Z,19232.63
2023-04-12T01:31:27.281Z,19257.00
2023-04-12T01:33:58.298Z,19263.09
2023-04-12T01:36:29.180Z,19248.88
2023-04-12T01:38:59.021Z,19259.03
2023-04-12T01:41:27.186Z,19200.13
2023-04-12T01:43:56.952Z,19234.66
2023-04-12T01:46:25.725Z,19230.59
2023-04-12T01:48:55.909Z,19248.88
2023-04-12T01:51:39.981Z,19220.44
2023-04-12T01:54:13.100Z,19210.28
2023-04-12T01:56:46.055Z,19244.81
2023-04-12T01:59:17.183Z,19224.50
2023-04-12T02:01:47.681Z,19257.00
2023-04-12T02:04:18.421Z,19230.59
2023-04-12T02:06:49.006Z,19216.38
2023-04-12T02:09:17.125Z,19228.56
2023-04-12T02:11:49.647Z,19244.81
2023-04-12T02:14:19.186Z,19214.34
2023-04-12T02:16:48.136Z,19234.66
2023-04-12T02:19:16.462Z,19210.28
2023-04-12T02:21:46.708Z,19248.88
2023-04-12T02:24:15.726Z,19228.56
2023-04-12T02:26:43.917Z,19232.63
2023-04-12T02:29:13.064Z,19246.84
2023-04-12T02:31:42.585Z,19212.31
2023-04-12T02:34:10.739Z,19281.41
2023-04-12T02:36:38.898Z,19265.13
2023-04-12T02:39:07.644Z,19305.78
2023-04-12T02:41:35.929Z,19275.31
2023-04-12T02:44:04.017Z,19287.50
2023-04-12T02:46:32.338Z,19267.16
2023-04-12T02:49:01.867Z,19240.75
2023-04-12T02:51:30.012Z,19265.13
2023-04-12T02:53:58.420Z,19271.25
2023-04-12T02:56:26.679Z,19299.69
2023-04-12T02:58:54.796Z,19279.38
2023-04-12T03:01:22.928Z,19269.22
2023-04-12T03:03:51.156Z,19281.41
2023-04-12T03:06:20.789Z,19240.75
2023-04-12T03:08:48.920Z,19271.25
2023-04-12T03:11:17.063Z,19254.97
2023-04-12T03:13:45.145Z,19246.84
2023-04-12T03:16:24.153Z,19246.84
2023-04-12T03:18:52.626Z,19271.25
2023-04-12T03:21:22.159Z,19246.84
2023-04-12T03:23:50.241Z,19275.31
2023-04-12T03:26:20.363Z,19281.41
2023-04-12T03:28:49.095Z,19259.03
2023-04-12T03:31:21.541Z,19261.06
2023-04-12T03:33:49.842Z,19259.03
2023-04-12T03:36:18.143Z,19281.41
2023-04-12T03:38:47.660Z,19257.00
2023-04-12T03:41:16.506Z,19269.22
2023-04-12T03:43:47.208Z,19232.63
2023-04-12T03:46:16.593Z,19232.63
2023-04-12T03:48:44.995Z,19248.88
2023-04-12T03:51:13.462Z,19220.44
2023-04-12T03:53:41.911Z,19238.72
2023-04-12T03:56:12.521Z,19244.81
2023-04-12T03:58:40.623Z,19240.75
2023-04-12T04:01:09.275Z,19236.69
2023-04-12T04:03:37.915Z,19283.44
2023-04-12T04:06:06.916Z,19289.53
2023-04-12T04:08:35.462Z,19267.16
2023-04-12T04:11:03.610Z,19246.84
2023-04-12T04:13:33.103Z,19230.59
2023-04-12T04:16:05.284Z,19232.63
2023-04-12T04:18:35.761Z,19271.25
2023-04-12T04:21:04.103Z,19269.22
2023-04-12T04:23:38.452Z,19240.75
2023-04-12T04:26:10.455Z,19269.22
2023-04-12T04:28:42.204Z,19263.09
2023-04-12T04:31:10.520Z,19313.91
2023-04-12T04:33:39.936Z,19277.34
2023-04-12T04:36:09.854Z,19291.56
2023-04-12T04:38:38.147Z,19277.34
2023-04-12T04:41:07.127Z,19261.06
2023-04-12T04:43:35.667Z,19360.66
2023-04-12T04:46:05.486Z,19313.91
2023-04-12T04:48:33.931Z,19326.09
2023-04-12T04:51:02.716Z,19352.53
2023-04-12T04:53:31.152Z,19344.41
2023-04-12T04:56:01.007Z,19350.50
2023-04-12T04:58:29.223Z,19330.16
2023-04-12T05:00:59.553Z,19374.88
2023-04-12T05:03:30.779Z,19364.72
2023-04-12T05:05:59.325Z,19374.88
2023-04-12T05:08:28.548Z,19372.84
2023-04-12T05:10:57.761Z,19366.75
2023-04-12T05:13:26.073Z,19376.91
2023-04-12T05:15:54.266Z,19350.50
2023-04-12T05:18:22.507Z,19385.03
2023-04-12T05:20:51.977Z,19419.59
2023-04-12T05:23:20.128Z,19364.72
2023-04-12T05:25:49.976Z,19387.06
2023-04-12T05:28:18.618Z,19407.38
2023-04-12T05:30:47.236Z,19409.41
2023-04-12T05:33:15.735Z,19419.59
2023-04-12T05:35:44.011Z,19415.50
2023-04-12T05:38:13.757Z,19419.59
2023-04-12T05:40:44.022Z,19458.19
2023-04-12T05:43:12.856Z,19452.09
2023-04-12T05:45:41.151Z,19474.44
2023-04-12T05:48:09.906Z,19454.13
2023-04-12T05:50:38.108Z,19466.31
2023-04-12T05:53:06.295Z,19478.50
2023-04-12T05:55:37.973Z,19441.94
2023-04-12T05:58:06.516Z,19470.38
2023-04-12T06:00:35.076Z,19456.16
2023-04-12T06:03:03.811Z,19472.41
2023-04-12T06:05:32.365Z,19504.94
2023-04-12T06:08:00.843Z,19523.22
2023-04-12T06:10:29.376Z,19525.25
2023-04-12T06:12:58.871Z,19537.44
2023-04-12T06:15:27.098Z,19533.38
2023-04-12T06:17:55.439Z,19533.38
2023-04-12T06:20:23.669Z,19590.28
2023-04-12T06:22:51.816Z,19559.81
2023-04-12T06:25:20.561Z,19553.72
2023-04-12T06:27:48.721Z,19578.09
2023-04-12T06:30:20.912Z,19608.56
2023-04-12T06:32:49.351Z,19588.25
2023-04-12T06:35:17.968Z,19624.84
2023-04-12T06:37:46.274Z,19626.88
2023-04-12T06:40:14.445Z,19620.78
2023-04-12T06:42:42.581Z,19649.22
2023-04-12T06:45:11.994Z,19616.72
2023-04-12T06:47:41.766Z,19645.16
2023-04-12T06:50:11.042Z,19681.75
2023-04-12T06:52:39.202Z,19651.25
2023-04-12T06:55:08.944Z,19639.06
2023-04-12T06:57:37.098Z,19683.78
2023-04-12T07:00:06.600Z,19671.56
2023-04-12T07:02:34.930Z,19695.97
2023-04-12T07:05:04.864Z,19659.38
2023-04-12T07:07:33.280Z,19673.59
2023-04-12T07:10:03.272Z,19681.75
2023-04-12T07:12:31.506Z,19683.78
2023-04-12T07:15:00.373Z,19681.75
2023-04-12T07:17:28.493Z,19679.72
2023-04-12T07:19:57.374Z,19710.19
2023-04-12T07:22:26.857Z,19702.06
2023-04-12T07:24:55.098Z,19685.81
2023-04-12T07:27:24.074Z,19708.16
2023-04-12T07:29:53.324Z,19732.53
2023-04-12T07:32:21.651Z,19734.56
2023-04-12T07:34:49.949Z,19726.44
2023-04-12T07:37:19.180Z,19754.91
2023-04-12T07:39:48.745Z,19761.00
2023-04-12T07:42:17.315Z,19813.84
2023-04-12T07:44:45.522Z,19791.47
2023-04-12T07:47:13.914Z,19775.22
2023-04-12T07:49:42.038Z,19815.88
2023-04-12T07:52:10.225Z,19821.97
2023-04-12T07:54:39.208Z,19832.13
2023-04-12T07:57:09.834Z,19856.53
2023-04-12T07:59:38.016Z,19809.78
2023-04-12T08:02:06.712Z,19887.00
2023-04-12T08:04:35.138Z,19905.28
2023-04-12T08:07:03.288Z,19893.09
2023-04-12T08:09:31.435Z,19923.59
2023-04-12T08:11:59.588Z,19935.78
2023-04-12T08:14:29.279Z,19935.78
2023-04-12T08:16:57.677Z,19972.38
2023-04-12T08:19:26.103Z,19974.41
2023-04-12T08:21:55.055Z,20002.84
2023-04-12T08:24:23.219Z,20004.88
2023-04-12T08:26:52.232Z,20010.97
2023-04-12T08:29:20.530Z,20023.19
2023-04-12T08:31:50.168Z,20013.00
2023-04-12T08:34:18.862Z,20025.22
2023-04-12T08:36:47.368Z,20102.44
2023-04-12T08:39:15.604Z,20106.50
2023-04-12T08:41:44.898Z,20167.47
2023-04-12T08:44:13.537Z,20175.63
2023-04-12T08:46:42.272Z,20153.25
2023-04-12T08:49:12.541Z,20139.03
2023-04-12T08:51:43.676Z,20173.59
2023-04-12T08:54:11.970Z,20185.78
2023-04-12T08:56:44.078Z,20200.00
2023-04-12T08:59:13.522Z,20173.59
2023-04-12T09:01:43.235Z,20193.91
2023-04-12T09:04:13.096Z,20218.31
2023-04-12T09:06:41.499Z,20289.44
2023-04-12T09:09:10.244Z,20324.00
2023-04-12T09:11:38.607Z,20313.84
2023-04-12T09:14:23.970Z,20441.88
2023-04-12T09:16:52.768Z,20419.53
2023-04-12T09:19:34.987Z,20364.66
2023-04-12T09:22:04.062Z,20338.22
2023-04-12T09:24:47.156Z,20348.38
2023-04-12T09:27:15.499Z,20387.00
2023-04-12T09:29:45.534Z,20364.66
2023-04-12T09:32:13.697Z,20334.16
2023-04-12T09:34:57.748Z,20338.22
2023-04-12T09:37:26.269Z,20317.91
2023-04-12T09:40:02.313Z,20309.75
2023-04-12T09:42:33.664Z,20324.00
2023-04-12T09:45:25.893Z,20340.25
2023-04-12T09:47:58.581Z,20313.84
2023-04-12T09:50:30.491Z,20328.06
2023-04-12T09:53:00.034Z,20319.94
2023-04-12T09:55:30.219Z,20346.34
2023-04-12T09:58:05.782Z,20387.00
2023-04-12T10:00:35.188Z,20401.22
2023-04-12T10:03:11.147Z,20433.75
2023-04-12T10:05:42.286Z,20466.28
2023-04-12T10:08:15.319Z,20441.88
2023-04-12T10:10:48.530Z,20484.56
2023-04-12T10:13:37.385Z,20452.06
2023-04-12T10:16:08.745Z,20445.94
2023-04-12T10:18:38.092Z,20517.09
2023-04-12T10:21:09.442Z,20502.88
2023-04-12T10:23:38.714Z,20519.13
2023-04-12T10:26:07.810Z,20543.53
2023-04-12T10:28:36.227Z,20535.41
2023-04-12T10:31:29.689Z,20551.66
2023-04-12T10:33:58.470Z,20545.56
2023-04-12T10:36:54.607Z,20511.00
2023-04-12T10:39:48.265Z,20537.44
2023-04-12T10:42:26.722Z,20549.63
2023-04-12T10:45:00.985Z,20545.56
2023-04-12T10:48:03.895Z,20496.78
2023-04-12T10:50:35.103Z,20537.44
2023-04-12T10:53:41.675Z,20521.16
2023-04-12T10:56:41.049Z,20537.44
2023-04-12T10:59:10.332Z,20523.19
2023-04-12T11:01:40.314Z,20515.06
2023-04-12T11:04:18.241Z,20608.56
2023-04-12T11:07:11.679Z,20598.41
2023-04-12T11:09:44.123Z,20541.50
2023-04-12T11:12:16.739Z,20618.72
2023-04-12T11:14:48.237Z,20630.94
2023-04-12T11:17:24.734Z,20565.88
2023-04-12T11:19:56.773Z,20519.13
2023-04-12T11:22:29.025Z,20588.25
2023-04-12T11:25:01.029Z,20630.94
2023-04-12T11:27:31.795Z,20655.31
2023-04-12T11:30:02.593Z,20665.50
2023-04-12T11:32:33.973Z,20675.66
2023-04-12T11:35:02.948Z,20665.50
2023-04-12T11:37:32.524Z,20637.03
2023-04-12T11:40:01.980Z,20637.03
2023-04-12T11:42:30.593Z,20602.47
2023-04-12T11:45:04.865Z,20594.34
2023-04-12T11:47:43.496Z,20539.47
2023-04-12T11:50:12.174Z,20521.16
2023-04-12T11:52:41.231Z,20529.28
2023-04-12T11:55:11.804Z,20515.06
2023-04-12T11:57:40.586Z,20480.50
2023-04-12T12:00:10.906Z,20464.25
2023-04-12T12:02:48.878Z,20476.44
2023-04-12T12:05:24.882Z,20429.69
2023-04-12T12:07:54.081Z,20405.31
2023-04-12T12:10:40.086Z,20405.31
2023-04-12T12:13:22.458Z,20411.41
2023-04-12T12:15:53.468Z,20378.88
2023-04-12T12:18:29.963Z,20338.22
2023-04-12T12:20:58.017Z,20307.72
2023-04-12T12:23:31.447Z,20295.53
2023-04-12T12:26:18.359Z,20212.19
2023-04-12T12:28:51.828Z,20183.75
2023-04-12T12:31:22.433Z,20134.97
2023-04-12T12:33:56.774Z,20153.25
2023-04-12T12:36:32.580Z,20143.09
2023-04-12T12:39:09.259Z,20124.81
2023-04-12T12:41:39.873Z,20120.75
2023-04-12T12:44:08.645Z,20049.59
2023-04-12T12:46:52.104Z,20071.97
2023-04-12T12:49:21.976Z,20043.50
2023-04-12T12:51:51.456Z,20004.88
2023-04-12T12:54:32.222Z,19978.47
2023-04-12T12:57:08.793Z,19915.47
2023-04-12T12:59:37.012Z,19895.13
2023-04-12T13:02:05.767Z,19913.44
2023-04-12T13:04:34.145Z,19911.41
2023-04-12T13:07:02.326Z,19889.03
2023-04-12T13:09:32.552Z,19907.31
2023-04-12T13:12:01.886Z,19893.09
2023-04-12T13:14:31.517Z,19915.47
2023-04-12T13:16:59.580Z,19917.50
2023-04-12T13:19:27.654Z,19909.34
2023-04-12T13:21:56.677Z,19927.66
2023-04-12T13:24:24.722Z,19874.81
2023-04-12T13:26:52.816Z,19909.34
2023-04-12T13:29:20.998Z,19866.69
2023-04-12T13:31:50.455Z,19887.00
2023-04-12T13:34:18.568Z,19882.94
2023-04-12T13:36:46.637Z,19878.88
2023-04-12T13:39:14.746Z,19950.00
2023-04-12T13:41:42.818Z,19862.63
2023-04-12T13:44:11.012Z,19872.78
2023-04-12T13:46:39.070Z,19866.69
2023-04-12T13:49:08.490Z,19858.56
2023-04-12T13:51:36.563Z,19828.06
2023-04-12T13:54:05.859Z,19836.19
2023-04-12T13:56:33.873Z,19826.03
2023-04-12T13:59:02.378Z,19765.06
2023-04-12T14:01:30.645Z,19801.66
2023-04-12T14:03:58.784Z,19756.94
2023-04-12T14:06:28.192Z,19795.53
2023-04-12T14:08:56.649Z,19758.97
2023-04-12T14:11:25.537Z,19767.09
2023-04-12T14:13:54.398Z,19752.88
2023-04-12T14:16:22.390Z,19746.78
2023-04-12T14:18:50.416Z,19744.75
2023-04-12T14:21:18.665Z,19714.25
2023-04-12T14:23:48.044Z,19730.50
2023-04-12T14:26:17.160Z,19777.25
2023-04-12T14:28:45.266Z,19720.34
2023-04-12T14:31:14.708Z,19736.59
2023-04-12T14:33:42.877Z,19746.78
2023-04-12T14:36:11.309Z,19732.53
2023-04-12T14:38:39.384Z,19795.53
2023-04-12T14:41:10.822Z,19756.94
2023-04-12T14:43:38.978Z,19787.41
2023-04-12T14:46:07.585Z,19793.50
2023-04-12T14:48:35.731Z,19791.47
2023-04-12T14:51:04.005Z,19807.75
2023-04-12T14:53:32.269Z,19801.66
2023-04-12T14:56:02.367Z,19801.66
2023-04-12T14:58:31.953Z,19765.06
2023-04-12T15:01:00.946Z,19740.69
2023-04-12T15:03:33.246Z,19758.97
2023-04-12T15:06:01.378Z,19740.69
2023-04-12T15:08:29.714Z,19750.84
2023-04-12T15:10:57.811Z,19712.22
2023-04-12T15:13:32.501Z,19752.88
2023-04-12T15:16:04.145Z,19752.88
2023-04-12T15:18:32.236Z,19758.97
2023-04-12T15:21:03.117Z,19758.97
2023-04-12T15:23:33.009Z,19795.53
2023-04-12T15:26:02.054Z,19805.72
2023-04-12T15:28:30.418Z,19807.75
2023-04-12T15:30:58.729Z,19799.63
2023-04-12T15:33:28.219Z,19785.38
2023-04-12T15:35:57.599Z,19832.13
2023-04-12T15:38:25.924Z,19805.72
2023-04-12T15:40:56.864Z,19777.25
2023-04-12T15:43:25.985Z,19821.97
2023-04-12T15:45:55.161Z,19797.59
2023-04-12T15:48:25.575Z,19793.50
2023-04-12T15:50:56.761Z,19750.84
2023-04-12T15:53:27.973Z,19777.25
2023-04-12T15:55:56.014Z,19797.59
2023-04-12T15:58:24.911Z,19801.66
2023-04-12T16:00:53.869Z,19781.31
2023-04-12T16:03:23.252Z,19805.72
2023-04-12T16:05:53.211Z,19765.06
2023-04-12T16:08:23.041Z,19763.03
2023-04-12T16:10:51.735Z,19750.84
2023-04-12T16:13:20.531Z,19793.50
2023-04-12T16:15:48.659Z,19752.88
2023-04-12T16:18:18.110Z,19767.09
2023-04-12T16:20:46.344Z,19807.75
2023-04-12T16:23:16.631Z,19775.22
2023-04-12T16:25:47.249Z,19828.06
2023-04-12T16:28:17.952Z,19815.88
2023-04-12T16:30:46.400Z,19785.38
2023-04-12T16:33:14.467Z,19832.13
2023-04-12T16:35:43.200Z,19793.50
2023-04-12T16:38:13.322Z,19779.28
2023-04-12T16:40:42.151Z,19840.25
2023-04-12T16:43:11.677Z,19815.88
2023-04-12T16:45:41.903Z,19819.94
2023-04-12T16:48:10.005Z,19813.84
2023-04-12T16:50:39.358Z,19826.03
2023-04-12T16:53:08.461Z,19874.81
2023-04-12T16:55:36.456Z,19852.44
2023-04-12T16:58:04.500Z,19866.69
2023-04-12T17:00:34.940Z,19852.44
2023-04-12T17:03:03.153Z,19832.13
2023-04-12T17:05:31.670Z,19783.34
2023-04-12T17:07:59.916Z,19789.44
2023-04-12T17:10:28.374Z,19785.38
2023-04-12T17:12:58.377Z,19813.84
2023-04-12T17:15:29.246Z,19793.50
2023-04-12T17:18:05.265Z,19828.06
2023-04-12T17:20:34.738Z,19801.66
2023-04-12T17:23:03.493Z,19789.44
2023-04-12T17:25:32.434Z,19787.41
2023-04-12T17:28:02.097Z,19785.38
2023-04-12T17:30:30.699Z,19805.72
2023-04-12T17:33:01.262Z,19795.53
2023-04-12T17:35:31.683Z,19783.34
2023-04-12T17:37:59.796Z,19799.63
2023-04-12T17:40:27.879Z,19740.69
2023-04-12T17:42:56.090Z,19795.53
2023-04-12T17:45:24.606Z,19803.69
2023-04-12T17:47:54.460Z,19789.44
2023-04-12T17:50:22.649Z,19779.28
2023-04-12T17:52:52.159Z,19726.44
2023-04-12T17:55:23.521Z,19785.38
2023-04-12T17:57:52.450Z,19769.13
2023-04-12T18:00:23.485Z,19740.69
2023-04-12T18:02:51.843Z,19748.81
2023-04-12T18:05:20.212Z,19726.44
2023-04-12T18:07:48.309Z,19732.53
2023-04-12T18:10:21.318Z,19742.72
2023-04-12T18:12:50.118Z,19769.13
2023-04-12T18:15:18.915Z,19765.06
2023-04-12T18:17:47.062Z,19736.59
2023-04-12T18:20:16.470Z,19779.28
2023-04-12T18:22:45.937Z,19801.66
2023-04-12T18:25:14.372Z,19789.44
2023-04-12T18:27:47.273Z,19787.41
2023-04-12T18:30:17.322Z,19789.44
2023-04-12T18:32:45.631Z,19777.25
2023-04-12T18:35:13.718Z,19765.06
2023-04-12T18:37:43.554Z,19734.56
2023-04-12T18:40:13.656Z,19769.13
2023-04-12T18:42:43.986Z,19801.66
2023-04-12T18:45:12.930Z,19789.44
2023-04-12T18:47:42.086Z,19752.88
2023-04-12T18:50:11.368Z,19771.16
2023-04-12T18:52:39.462Z,19789.44
2023-04-12T18:55:09.378Z,19801.66
2023-04-12T18:57:37.452Z,19769.13
2023-04-12T19:00:13.562Z,19824.00
2023-04-12T19:02:42.176Z,19805.72
2023-04-12T19:05:11.037Z,19795.53
2023-04-12T19:07:39.285Z,19779.28
2023-04-12T19:10:09.319Z,19754.91
2023-04-12T19:12:38.149Z,19728.47
2023-04-12T19:15:10.516Z,19783.34
2023-04-12T19:17:39.038Z,19752.88
2023-04-12T19:20:09.295Z,19716.28
2023-04-12T19:22:37.555Z,19675.63
2023-04-12T19:25:08.426Z,19712.22
2023-04-12T19:27:37.041Z,19687.84
2023-04-12T19:30:10.883Z,19671.56
2023-04-12T19:32:39.395Z,19657.34
2023-04-12T19:35:09.834Z,19651.25
2023-04-12T19:37:38.204Z,19695.97
2023-04-12T19:40:09.108Z,19643.13
2023-04-12T19:42:37.273Z,19675.63
2023-04-12T19:45:08.329Z,19667.50
2023-04-12T19:47:36.978Z,19673.59
2023-04-12T19:50:07.165Z,19681.75
2023-04-12T19:52:35.536Z,19635.00
2023-04-12T19:55:03.808Z,19639.06
2023-04-12T19:57:32.809Z,19663.44
2023-04-12T20:00:01.476Z,19691.91
2023-04-12T20:02:31.270Z,19641.09
2023-04-12T20:04:59.659Z,19641.09
2023-04-12T20:07:28.026Z,19628.91
2023-04-12T20:09:56.153Z,19622.81
2023-04-12T20:12:24.532Z,19588.25
2023-04-12T20:14:54.431Z,19604.50
2023-04-12T20:17:22.743Z,19578.09
2023-04-12T20:19:55.363Z,19608.56
2023-04-12T20:22:24.093Z,19590.28
2023-04-12T20:24:54.038Z,19635.00
2023-04-12T20:27:23.178Z,19586.22
2023-04-12T20:29:51.832Z,19567.94
2023-04-12T20:32:20.243Z,19588.25
2023-04-12T20:34:49.813Z,19606.53
2023-04-12T20:37:19.923Z,19618.75
2023-04-12T20:39:48.072Z,19565.91
2023-04-12T20:42:20.333Z,19598.41
2023-04-12T20:44:48.893Z,19602.47
2023-04-12T20:47:18.722Z,19551.69
2023-04-12T20:49:47.136Z,19602.47
2023-04-12T20:52:18.604Z,19602.47
2023-04-12T20:54:48.335Z,19594.34
2023-04-12T20:57:19.538Z,19590.28
2023-04-12T20:59:48.253Z,19582.16
2023-04-12T21:02:16.607Z,19616.72
2023-04-12T21:04:45.242Z,19590.28
2023-04-12T21:07:14.234Z,19612.63
2023-04-12T21:09:42.409Z,19616.72
2023-04-12T21:12:12.139Z,19622.81
2023-04-12T21:14:40.243Z,19600.44
2023-04-12T21:17:08.964Z,19600.44
2023-04-12T21:19:40.896Z,19582.16
2023-04-12T21:22:09.394Z,19569.97
2023-04-12T21:24:38.777Z,19586.22
2023-04-12T21:27:08.489Z,19584.19
2023-04-12T21:29:41.149Z,19574.03
2023-04-12T21:32:10.790Z,19576.06
2023-04-12T21:34:39.279Z,19557.78
2023-04-12T21:37:07.618Z,19559.81
2023-04-12T21:39:36.168Z,19545.56
2023-04-12T21:42:04.511Z,19533.38
2023-04-12T21:44:32.907Z,19525.25
2023-04-12T21:47:02.376Z,19521.19
2023-04-12T21:49:31.246Z,19500.88
2023-04-12T21:51:59.409Z,19502.91
2023-04-12T21:54:28.948Z,19527.28
2023-04-12T21:56:57.321Z,19500.88
2023-04-12T21:59:26.727Z,19478.50
2023-04-12T22:01:54.897Z,19450.06
2023-04-12T22:04:24.468Z,19437.88
2023-04-12T22:06:52.819Z,19403.31
2023-04-12T22:09:20.929Z,19460.22
2023-04-12T22:11:49.045Z,19460.22
2023-04-12T22:14:17.241Z,19429.75
2023-04-12T22:16:45.443Z,19456.16
2023-04-12T22:19:13.869Z,19500.88
2023-04-12T22:21:43.322Z,19490.72
2023-04-12T22:24:12.056Z,19484.59
2023-04-12T22:26:40.180Z,19574.03
2023-04-12T22:29:08.335Z,19525.25
2023-04-12T22:31:38.391Z,19517.13
2023-04-12T22:34:06.587Z,19521.19
2023-04-12T22:36:37.279Z,19494.78
2023-04-12T22:39:07.334Z,19525.25
2023-04-12T22:41:37.888Z,19504.94
2023-04-12T22:44:07.381Z,19506.97
2023-04-12T22:46:38.874Z,19504.94
2023-04-12T22:49:07.220Z,19500.88
2023-04-12T22:51:35.432Z,19523.22
2023-04-12T22:54:06.157Z,19494.78
2023-04-12T22:56:41.664Z,19464.28
2023-04-12T22:59:10.495Z,19454.13
2023-04-12T23:01:38.888Z,19441.94
2023-04-12T23:04:07.502Z,19456.16
2023-04-12T23:06:35.625Z,19439.91
2023-04-12T23:09:05.801Z,19454.13
2023-04-12T23:11:38.618Z,19466.31
2023-04-12T23:14:08.213Z,19466.31
2023-04-12T23:16:38.851Z,19448.03
2023-04-12T23:19:07.204Z,19458.19
2023-04-12T23:21:36.187Z,19456.16
2023-04-12T23:24:05.161Z,19464.28
2023-04-12T23:26:34.497Z,19460.22
2023-04-12T23:29:05.182Z,19431.78
2023-04-12T23:31:33.739Z,19431.78
2023-04-12T23:34:03.630Z,19435.84
2023-04-12T23:36:32.307Z,19411.44
2023-04-12T23:39:02.017Z,19419.59
2023-04-12T23:41:32.237Z,19411.44
2023-04-12T23:44:01.371Z,19437.88
2023-04-12T23:46:31.207Z,19419.59
2023-04-12T23:48:59.318Z,19399.25
2023-04-12T23:51:27.860Z,19429.75
2023-04-12T23:53:56.202Z,19470.38
2023-04-12T23:56:24.388Z,19468.34
2023-04-12T23:58:52.511Z,19423.66
